sensor_id;sensor_type;location;lat;lon;timestamp;temperature;humidity
40255;DHT22;25973;52.368;4.940;2023-03-31T00:02:01;12.20;99.90
40255;DHT22;25973;52.368;4.940;2023-03-31T00:04:31;12.20;99.90
40255;DHT22;25973;52.368;4.940;2023-03-31T00:06:57;12.20;99.90
40255;DHT22;25973;52.368;4.940;2023-03-31T00:09:22;12.10;99.90
40255;DHT22;25973;52.368;4.940;2023-03-31T00:11:48;12.10;99.90
40255;DHT22;25973;52.368;4.940;2023-03-31T00:14:14;12.10;99.90
40255;DHT22;25973;52.368;4.940;2023-03-31T00:16:41;12.10;99.90
40255;DHT22;25973;52.368;4.940;2023-03-31T00:19:06;12.10;99.90
40255;DHT22;25973;52.368;4.940;2023-03-31T00:21:34;12.10;99.90
40255;DHT22;25973;52.368;4.940;2023-03-31T00:24:02;12.10;99.90
40255;DHT22;25973;52.368;4.940;2023-03-31T00:26:28;12.10;99.90
40255;DHT22;25973;52.368;4.940;2023-03-31T00:28:53;12.10;99.90
40255;DHT22;25973;52.368;4.940;2023-03-31T00:31:19;12.10;99.90
40255;DHT22;25973;52.368;4.940;2023-03-31T00:33:45;12.00;99.90
40255;DHT22;25973;52.368;4.940;2023-03-31T00:36:10;12.10;99.90
40255;DHT22;25973;52.368;4.940;2023-03-31T00:38:35;12.00;99.90
40255;DHT22;25973;52.368;4.940;2023-03-31T00:41:01;12.10;99.90
40255;DHT22;25973;52.368;4.940;2023-03-31T00:43:34;12.10;99.90
40255;DHT22;25973;52.368;4.940;2023-03-31T00:46:19;12.10;99.90
40255;DHT22;25973;52.368;4.940;2023-03-31T00:48:50;12.10;99.90
40255;DHT22;25973;52.368;4.940;2023-03-31T00:51:16;12.10;99.90
40255;DHT22;25973;52.368;4.940;2023-03-31T00:53:43;12.10;99.90
40255;DHT22;25973;52.368;4.940;2023-03-31T00:56:13;12.10;99.90
40255;DHT22;25973;52.368;4.940;2023-03-31T00:58:40;12.00;99.90
40255;DHT22;25973;52.368;4.940;2023-03-31T01:01:09;11.90;99.90
40255;DHT22;25973;52.368;4.940;2023-03-31T01:03:34;11.90;99.90
40255;DHT22;25973;52.368;4.940;2023-03-31T01:06:03;11.90;99.90
40255;DHT22;25973;52.368;4.940;2023-03-31T01:08:29;12.00;99.90
40255;DHT22;25973;52.368;4.940;2023-03-31T01:10:57;11.90;99.90
40255;DHT22;25973;52.368;4.940;2023-03-31T01:13:22;12.00;99.90
40255;DHT22;25973;52.368;4.940;2023-03-31T01:15:48;11.90;99.90
40255;DHT22;25973;52.368;4.940;2023-03-31T01:18:14;11.90;99.90
40255;DHT22;25973;52.368;4.940;2023-03-31T01:25:44;12.00;99.90
40255;DHT22;25973;52.368;4.940;2023-03-31T01:30:50;12.10;99.90
40255;DHT22;25973;52.368;4.940;2023-03-31T01:46:44;12.10;99.90
40255;DHT22;25973;52.368;4.940;2023-03-31T01:49:22;12.10;99.90
40255;DHT22;25973;52.368;4.940;2023-03-31T01:51:50;12.00;99.90
40255;DHT22;25973;52.368;4.940;2023-03-31T01:57:10;12.00;99.90
40255;DHT22;25973;52.368;4.940;2023-03-31T01:59:40;12.00;99.90
40255;DHT22;25973;52.368;4.940;2023-03-31T02:02:16;12.10;99.90
40255;DHT22;25973;52.368;4.940;2023-03-31T02:04:48;12.10;99.90
40255;DHT22;25973;52.368;4.940;2023-03-31T02:07:15;12.10;99.90
40255;DHT22;25973;52.368;4.940;2023-03-31T02:09:44;12.10;99.90
40255;DHT22;25973;52.368;4.940;2023-03-31T02:12:12;12.10;99.90
40255;DHT22;25973;52.368;4.940;2023-03-31T02:14:39;12.10;99.90
40255;DHT22;25973;52.368;4.940;2023-03-31T02:17:07;12.00;99.90
40255;DHT22;25973;52.368;4.940;2023-03-31T02:19:39;12.10;99.90
40255;DHT22;25973;52.368;4.940;2023-03-31T02:22:05;12.10;99.90
40255;DHT22;25973;52.368;4.940;2023-03-31T02:24:32;12.10;99.90
40255;DHT22;25973;52.368;4.940;2023-03-31T02:29:39;12.10;99.90
40255;DHT22;25973;52.368;4.940;2023-03-31T02:34:36;12.20;99.90
40255;DHT22;25973;52.368;4.940;2023-03-31T02:37:02;12.20;99.90
40255;DHT22;25973;52.368;4.940;2023-03-31T02:39:29;12.20;99.90
40255;DHT22;25973;52.368;4.940;2023-03-31T02:41:57;12.20;99.90
40255;DHT22;25973;52.368;4.940;2023-03-31T02:44:23;12.20;99.90
40255;DHT22;25973;52.368;4.940;2023-03-31T02:46:48;12.20;99.90
40255;DHT22;25973;52.368;4.940;2023-03-31T02:49:14;12.20;99.90
40255;DHT22;25973;52.368;4.940;2023-03-31T02:51:44;12.20;99.90
40255;DHT22;25973;52.368;4.940;2023-03-31T03:10:01;12.20;99.90
40255;DHT22;25973;52.368;4.940;2023-03-31T03:12:42;12.20;99.90
40255;DHT22;25973;52.368;4.940;2023-03-31T03:15:10;12.10;99.90
40255;DHT22;25973;52.368;4.940;2023-03-31T03:17:40;12.10;99.90
40255;DHT22;25973;52.368;4.940;2023-03-31T03:20:08;12.00;99.90
40255;DHT22;25973;52.368;4.940;2023-03-31T03:22:35;12.00;99.90
40255;DHT22;25973;52.368;4.940;2023-03-31T03:25:01;11.90;99.90
40255;DHT22;25973;52.368;4.940;2023-03-31T03:27:27;11.90;99.90
40255;DHT22;25973;52.368;4.940;2023-03-31T03:29:53;11.80;99.90
40255;DHT22;25973;52.368;4.940;2023-03-31T03:32:18;11.90;99.90
40255;DHT22;25973;52.368;4.940;2023-03-31T03:34:44;11.80;99.90
40255;DHT22;25973;52.368;4.940;2023-03-31T03:37:09;11.80;99.90
40255;DHT22;25973;52.368;4.940;2023-03-31T03:39:35;11.80;99.90
40255;DHT22;25973;52.368;4.940;2023-03-31T03:42:00;11.80;99.90
40255;DHT22;25973;52.368;4.940;2023-03-31T03:44:26;11.80;99.90
40255;DHT22;25973;52.368;4.940;2023-03-31T03:46:51;11.80;99.90
40255;DHT22;25973;52.368;4.940;2023-03-31T03:49:16;11.80;99.90
40255;DHT22;25973;52.368;4.940;2023-03-31T03:51:42;11.80;99.90
40255;DHT22;25973;52.368;4.940;2023-03-31T03:54:07;11.70;99.90
40255;DHT22;25973;52.368;4.940;2023-03-31T03:56:34;11.70;99.90
40255;DHT22;25973;52.368;4.940;2023-03-31T03:59:00;11.70;99.90
40255;DHT22;25973;52.368;4.940;2023-03-31T04:01:25;11.70;99.90
40255;DHT22;25973;52.368;4.940;2023-03-31T04:03:51;11.70;99.90
40255;DHT22;25973;52.368;4.940;2023-03-31T04:06:16;11.70;99.90
40255;DHT22;25973;52.368;4.940;2023-03-31T04:08:45;11.70;99.90
40255;DHT22;25973;52.368;4.940;2023-03-31T04:11:12;11.70;99.90
40255;DHT22;25973;52.368;4.940;2023-03-31T04:13:37;11.60;99.90
40255;DHT22;25973;52.368;4.940;2023-03-31T04:16:03;11.60;99.90
40255;DHT22;25973;52.368;4.940;2023-03-31T04:18:28;11.60;99.90
40255;DHT22;25973;52.368;4.940;2023-03-31T04:20:54;11.60;99.90
40255;DHT22;25973;52.368;4.940;2023-03-31T04:23:28;11.50;99.90
40255;DHT22;25973;52.368;4.940;2023-03-31T04:25:54;11.50;99.90
40255;DHT22;25973;52.368;4.940;2023-03-31T04:28:19;11.40;99.90
40255;DHT22;25973;52.368;4.940;2023-03-31T04:30:45;11.30;99.90
40255;DHT22;25973;52.368;4.940;2023-03-31T04:33:10;11.30;99.90
40255;DHT22;25973;52.368;4.940;2023-03-31T04:35:40;11.20;99.90
40255;DHT22;25973;52.368;4.940;2023-03-31T04:38:23;11.20;99.90
40255;DHT22;25973;52.368;4.940;2023-03-31T04:40:49;11.20;99.90
40255;DHT22;25973;52.368;4.940;2023-03-31T04:43:15;11.10;99.90
40255;DHT22;25973;52.368;4.940;2023-03-31T04:45:41;11.10;99.90
40255;DHT22;25973;52.368;4.940;2023-03-31T04:48:07;11.00;99.90
40255;DHT22;25973;52.368;4.940;2023-03-31T04:50:32;11.00;99.90
40255;DHT22;25973;52.368;4.940;2023-03-31T04:52:58;11.00;99.90
40255;DHT22;25973;52.368;4.940;2023-03-31T04:55:23;11.10;99.90
40255;DHT22;25973;52.368;4.940;2023-03-31T04:57:49;11.00;99.90
40255;DHT22;25973;52.368;4.940;2023-03-31T05:00:16;11.10;99.90
40255;DHT22;25973;52.368;4.940;2023-03-31T05:02:41;11.10;99.90
40255;DHT22;25973;52.368;4.940;2023-03-31T05:05:07;11.10;99.90
40255;DHT22;25973;52.368;4.940;2023-03-31T05:07:32;11.10;99.90
40255;DHT22;25973;52.368;4.940;2023-03-31T05:09:58;11.10;99.90
40255;DHT22;25973;52.368;4.940;2023-03-31T05:12:23;11.20;99.90
40255;DHT22;25973;52.368;4.940;2023-03-31T05:14:50;11.20;99.90
40255;DHT22;25973;52.368;4.940;2023-03-31T05:17:15;11.20;99.90
40255;DHT22;25973;52.368;4.940;2023-03-31T05:19:44;11.20;99.90
40255;DHT22;25973;52.368;4.940;2023-03-31T05:22:10;11.30;99.90
40255;DHT22;25973;52.368;4.940;2023-03-31T05:24:35;11.30;99.90
40255;DHT22;25973;52.368;4.940;2023-03-31T05:27:01;11.30;99.90
40255;DHT22;25973;52.368;4.940;2023-03-31T05:29:26;11.40;99.90
40255;DHT22;25973;52.368;4.940;2023-03-31T05:31:52;11.40;99.90
40255;DHT22;25973;52.368;4.940;2023-03-31T05:34:18;11.40;99.90
40255;DHT22;25973;52.368;4.940;2023-03-31T05:36:43;11.40;99.90
40255;DHT22;25973;52.368;4.940;2023-03-31T05:39:09;11.40;99.90
40255;DHT22;25973;52.368;4.940;2023-03-31T05:41:34;11.50;99.90
40255;DHT22;25973;52.368;4.940;2023-03-31T05:44:00;11.50;99.90
40255;DHT22;25973;52.368;4.940;2023-03-31T05:46:29;11.50;99.90
40255;DHT22;25973;52.368;4.940;2023-03-31T05:48:54;11.60;99.90
40255;DHT22;25973;52.368;4.940;2023-03-31T05:51:21;11.60;99.90
40255;DHT22;25973;52.368;4.940;2023-03-31T05:53:46;11.60;99.90
40255;DHT22;25973;52.368;4.940;2023-03-31T05:56:11;11.70;99.90
40255;DHT22;25973;52.368;4.940;2023-03-31T05:58:37;11.60;99.90
40255;DHT22;25973;52.368;4.940;2023-03-31T06:01:13;11.60;99.90
40255;DHT22;25973;52.368;4.940;2023-03-31T06:03:44;11.50;99.90
40255;DHT22;25973;52.368;4.940;2023-03-31T06:06:10;11.40;99.90
40255;DHT22;25973;52.368;4.940;2023-03-31T06:08:37;11.40;99.90
40255;DHT22;25973;52.368;4.940;2023-03-31T06:11:03;11.40;99.90
40255;DHT22;25973;52.368;4.940;2023-03-31T06:13:29;11.40;99.90
40255;DHT22;25973;52.368;4.940;2023-03-31T06:15:55;11.30;99.90
40255;DHT22;25973;52.368;4.940;2023-03-31T06:18:21;11.30;99.90
40255;DHT22;25973;52.368;4.940;2023-03-31T06:20:46;11.30;99.90
40255;DHT22;25973;52.368;4.940;2023-03-31T06:23:12;11.40;99.90
40255;DHT22;25973;52.368;4.940;2023-03-31T06:25:37;11.40;99.90
40255;DHT22;25973;52.368;4.940;2023-03-31T06:28:03;11.40;99.90
40255;DHT22;25973;52.368;4.940;2023-03-31T06:30:30;11.50;99.90
40255;DHT22;25973;52.368;4.940;2023-03-31T06:32:55;11.50;99.90
40255;DHT22;25973;52.368;4.940;2023-03-31T06:35:21;11.60;99.90
40255;DHT22;25973;52.368;4.940;2023-03-31T06:37:46;11.60;99.90
40255;DHT22;25973;52.368;4.940;2023-03-31T06:40:12;11.60;99.90
40255;DHT22;25973;52.368;4.940;2023-03-31T06:42:37;11.70;99.90
40255;DHT22;25973;52.368;4.940;2023-03-31T06:45:03;11.70;99.90
40255;DHT22;25973;52.368;4.940;2023-03-31T06:47:28;11.70;99.90
40255;DHT22;25973;52.368;4.940;2023-03-31T06:49:54;11.80;99.90
40255;DHT22;25973;52.368;4.940;2023-03-31T06:52:19;11.80;99.90
40255;DHT22;25973;52.368;4.940;2023-03-31T06:54:45;11.80;99.90
40255;DHT22;25973;52.368;4.940;2023-03-31T06:57:11;11.80;99.90
40255;DHT22;25973;52.368;4.940;2023-03-31T06:59:36;11.80;99.90
40255;DHT22;25973;52.368;4.940;2023-03-31T07:02:02;11.80;99.90
40255;DHT22;25973;52.368;4.940;2023-03-31T07:04:27;11.90;99.90
40255;DHT22;25973;52.368;4.940;2023-03-31T07:06:53;11.90;99.90
40255;DHT22;25973;52.368;4.940;2023-03-31T07:09:18;11.90;99.90
40255;DHT22;25973;52.368;4.940;2023-03-31T07:11:47;11.90;99.90
40255;DHT22;25973;52.368;4.940;2023-03-31T07:14:12;11.90;99.90
40255;DHT22;25973;52.368;4.940;2023-03-31T07:16:38;11.90;99.90
40255;DHT22;25973;52.368;4.940;2023-03-31T07:19:03;11.90;99.90
40255;DHT22;25973;52.368;4.940;2023-03-31T07:21:30;11.90;99.90
40255;DHT22;25973;52.368;4.940;2023-03-31T07:23:56;11.80;99.90
40255;DHT22;25973;52.368;4.940;2023-03-31T07:26:21;11.80;99.90
40255;DHT22;25973;52.368;4.940;2023-03-31T07:28:47;11.80;99.90
40255;DHT22;25973;52.368;4.940;2023-03-31T07:31:12;11.80;99.90
40255;DHT22;25973;52.368;4.940;2023-03-31T07:33:38;11.70;99.90
40255;DHT22;25973;52.368;4.940;2023-03-31T07:36:04;11.70;99.90
40255;DHT22;25973;52.368;4.940;2023-03-31T07:38:30;11.70;99.90
40255;DHT22;25973;52.368;4.940;2023-03-31T07:40:55;11.70;99.90
40255;DHT22;25973;52.368;4.940;2023-03-31T07:43:21;11.60;99.90
40255;DHT22;25973;52.368;4.940;2023-03-31T07:45:46;11.60;99.90
40255;DHT22;25973;52.368;4.940;2023-03-31T07:48:12;11.60;99.90
40255;DHT22;25973;52.368;4.940;2023-03-31T07:50:37;11.70;99.90
40255;DHT22;25973;52.368;4.940;2023-03-31T07:53:03;11.70;99.90
40255;DHT22;25973;52.368;4.940;2023-03-31T07:55:28;11.70;99.90
40255;DHT22;25973;52.368;4.940;2023-03-31T07:57:54;11.80;99.90
40255;DHT22;25973;52.368;4.940;2023-03-31T08:00:19;11.90;99.90
40255;DHT22;25973;52.368;4.940;2023-03-31T08:02:45;11.90;99.90
40255;DHT22;25973;52.368;4.940;2023-03-31T08:05:12;11.90;99.90
40255;DHT22;25973;52.368;4.940;2023-03-31T08:07:38;12.00;99.90
40255;DHT22;25973;52.368;4.940;2023-03-31T08:10:05;11.90;99.90
40255;DHT22;25973;52.368;4.940;2023-03-31T08:12:31;12.00;99.90
40255;DHT22;25973;52.368;4.940;2023-03-31T08:14:57;12.10;99.90
40255;DHT22;25973;52.368;4.940;2023-03-31T08:17:22;12.10;99.90
40255;DHT22;25973;52.368;4.940;2023-03-31T08:19:48;12.20;99.90
40255;DHT22;25973;52.368;4.940;2023-03-31T08:22:15;12.30;99.90
40255;DHT22;25973;52.368;4.940;2023-03-31T08:24:40;12.40;99.90
40255;DHT22;25973;52.368;4.940;2023-03-31T08:27:06;12.40;99.90
40255;DHT22;25973;52.368;4.940;2023-03-31T08:29:31;12.50;99.90
40255;DHT22;25973;52.368;4.940;2023-03-31T08:31:57;12.50;99.90
40255;DHT22;25973;52.368;4.940;2023-03-31T08:34:23;12.50;99.90
40255;DHT22;25973;52.368;4.940;2023-03-31T08:36:48;12.60;99.90
40255;DHT22;25973;52.368;4.940;2023-03-31T08:39:14;12.70;99.90
40255;DHT22;25973;52.368;4.940;2023-03-31T08:44:08;12.80;99.90
40255;DHT22;25973;52.368;4.940;2023-03-31T08:46:35;12.90;99.90
40255;DHT22;25973;52.368;4.940;2023-03-31T08:49:02;12.90;99.90
40255;DHT22;25973;52.368;4.940;2023-03-31T08:54:02;13.10;99.90
40255;DHT22;25973;52.368;4.940;2023-03-31T08:56:28;13.20;99.90
40255;DHT22;25973;52.368;4.940;2023-03-31T08:58:55;13.20;99.90
40255;DHT22;25973;52.368;4.940;2023-03-31T09:07:04;13.40;99.90
40255;DHT22;25973;52.368;4.940;2023-03-31T09:09:36;13.40;99.90
40255;DHT22;25973;52.368;4.940;2023-03-31T09:12:07;13.50;99.90
40255;DHT22;25973;52.368;4.940;2023-03-31T09:14:41;13.50;99.90
40255;DHT22;25973;52.368;4.940;2023-03-31T09:19:51;13.40;99.90
40255;DHT22;25973;52.368;4.940;2023-03-31T09:22:19;13.30;99.90
40255;DHT22;25973;52.368;4.940;2023-03-31T09:24:51;13.10;99.90
40255;DHT22;25973;52.368;4.940;2023-03-31T09:27:18;13.10;99.90
40255;DHT22;25973;52.368;4.940;2023-03-31T09:34:35;12.90;99.90
40255;DHT22;25973;52.368;4.940;2023-03-31T09:37:01;12.90;99.90
40255;DHT22;25973;52.368;4.940;2023-03-31T09:39:27;13.00;99.90
40255;DHT22;25973;52.368;4.940;2023-03-31T09:41:52;13.00;99.90
40255;DHT22;25973;52.368;4.940;2023-03-31T09:44:35;13.00;99.90
40255;DHT22;25973;52.368;4.940;2023-03-31T09:47:01;13.00;99.90
40255;DHT22;25973;52.368;4.940;2023-03-31T09:49:30;13.10;99.90
40255;DHT22;25973;52.368;4.940;2023-03-31T09:52:02;13.30;99.90
40255;DHT22;25973;52.368;4.940;2023-03-31T09:54:42;13.30;99.90
40255;DHT22;25973;52.368;4.940;2023-03-31T09:57:24;13.40;99.90
40255;DHT22;25973;52.368;4.940;2023-03-31T09:59:50;13.60;99.90
40255;DHT22;25973;52.368;4.940;2023-03-31T10:02:20;13.80;99.90
40255;DHT22;25973;52.368;4.940;2023-03-31T10:04:49;13.90;99.90
40255;DHT22;25973;52.368;4.940;2023-03-31T10:07:19;14.00;99.90
40255;DHT22;25973;52.368;4.940;2023-03-31T10:09:45;13.90;99.90
40255;DHT22;25973;52.368;4.940;2023-03-31T10:12:15;13.90;99.90
40255;DHT22;25973;52.368;4.940;2023-03-31T10:14:45;13.80;99.90
40255;DHT22;25973;52.368;4.940;2023-03-31T10:17:14;13.80;99.90
40255;DHT22;25973;52.368;4.940;2023-03-31T10:22:32;13.70;99.90
40255;DHT22;25973;52.368;4.940;2023-03-31T10:27:35;13.60;99.90
40255;DHT22;25973;52.368;4.940;2023-03-31T10:30:04;13.60;99.90
40255;DHT22;25973;52.368;4.940;2023-03-31T10:32:33;13.50;99.90
40255;DHT22;25973;52.368;4.940;2023-03-31T10:35:04;13.40;99.90
40255;DHT22;25973;52.368;4.940;2023-03-31T10:37:30;13.30;99.90
40255;DHT22;25973;52.368;4.940;2023-03-31T10:39:59;13.30;99.90
40255;DHT22;25973;52.368;4.940;2023-03-31T10:42:25;13.20;99.90
40255;DHT22;25973;52.368;4.940;2023-03-31T10:45:26;13.10;99.90
40255;DHT22;25973;52.368;4.940;2023-03-31T10:47:44;13.10;99.90
40255;DHT22;25973;52.368;4.940;2023-03-31T10:50:13;13.20;99.90
40255;DHT22;25973;52.368;4.940;2023-03-31T10:52:43;13.20;99.90
40255;DHT22;25973;52.368;4.940;2023-03-31T10:55:12;13.20;99.90
40255;DHT22;25973;52.368;4.940;2023-03-31T11:00:07;13.30;99.90
40255;DHT22;25973;52.368;4.940;2023-03-31T11:02:41;13.20;99.90
40255;DHT22;25973;52.368;4.940;2023-03-31T11:08:15;13.20;99.90
40255;DHT22;25973;52.368;4.940;2023-03-31T11:13:18;13.20;99.90
40255;DHT22;25973;52.368;4.940;2023-03-31T11:16:00;13.20;99.90
40255;DHT22;25973;52.368;4.940;2023-03-31T11:18:35;13.10;99.90
40255;DHT22;25973;52.368;4.940;2023-03-31T11:23:57;13.10;99.90
40255;DHT22;25973;52.368;4.940;2023-03-31T11:32:21;13.00;99.90
40255;DHT22;25973;52.368;4.940;2023-03-31T11:35:03;13.00;99.90
40255;DHT22;25973;52.368;4.940;2023-03-31T11:37:37;13.00;99.90
40255;DHT22;25973;52.368;4.940;2023-03-31T11:40:20;13.00;99.90
40255;DHT22;25973;52.368;4.940;2023-03-31T11:42:59;13.10;99.90
40255;DHT22;25973;52.368;4.940;2023-03-31T11:45:33;13.10;99.90
40255;DHT22;25973;52.368;4.940;2023-03-31T11:48:01;13.20;99.90
40255;DHT22;25973;52.368;4.940;2023-03-31T11:50:30;13.30;99.90
40255;DHT22;25973;52.368;4.940;2023-03-31T11:53:01;13.30;99.90
40255;DHT22;25973;52.368;4.940;2023-03-31T11:55:27;13.40;99.90
40255;DHT22;25973;52.368;4.940;2023-03-31T11:57:58;13.40;99.90
40255;DHT22;25973;52.368;4.940;2023-03-31T12:00:30;13.50;99.90
40255;DHT22;25973;52.368;4.940;2023-03-31T12:03:13;13.40;99.90
40255;DHT22;25973;52.368;4.940;2023-03-31T12:05:54;13.40;99.90
40255;DHT22;25973;52.368;4.940;2023-03-31T12:10:50;13.50;99.90
40255;DHT22;25973;52.368;4.940;2023-03-31T12:18:35;13.30;99.90
40255;DHT22;25973;52.368;4.940;2023-03-31T12:21:02;13.20;99.90
40255;DHT22;25973;52.368;4.940;2023-03-31T12:23:29;13.20;99.90
40255;DHT22;25973;52.368;4.940;2023-03-31T12:28:23;13.30;99.90
40255;DHT22;25973;52.368;4.940;2023-03-31T12:30:51;13.30;99.90
40255;DHT22;25973;52.368;4.940;2023-03-31T12:33:19;13.30;99.90
40255;DHT22;25973;52.368;4.940;2023-03-31T12:35:52;13.30;99.90
40255;DHT22;25973;52.368;4.940;2023-03-31T12:38:29;13.30;99.90
40255;DHT22;25973;52.368;4.940;2023-03-31T12:46:27;13.30;99.90
40255;DHT22;25973;52.368;4.940;2023-03-31T12:56:25;13.30;99.90
40255;DHT22;25973;52.368;4.940;2023-03-31T12:58:51;13.30;99.90
40255;DHT22;25973;52.368;4.940;2023-03-31T13:01:20;13.30;99.90
40255;DHT22;25973;52.368;4.940;2023-03-31T13:11:17;13.00;99.90
40255;DHT22;25973;52.368;4.940;2023-03-31T13:13:57;12.90;99.90
40255;DHT22;25973;52.368;4.940;2023-03-31T13:16:23;12.80;99.90
40255;DHT22;25973;52.368;4.940;2023-03-31T13:18:52;12.80;99.90
40255;DHT22;25973;52.368;4.940;2023-03-31T13:21:18;12.80;99.90
40255;DHT22;25973;52.368;4.940;2023-03-31T13:23:44;12.70;99.90
40255;DHT22;25973;52.368;4.940;2023-03-31T13:34:24;12.70;99.90
40255;DHT22;25973;52.368;4.940;2023-03-31T13:36:55;12.70;99.90
40255;DHT22;25973;52.368;4.940;2023-03-31T13:39:44;12.70;99.90
40255;DHT22;25973;52.368;4.940;2023-03-31T13:42:20;12.70;99.90
40255;DHT22;25973;52.368;4.940;2023-03-31T13:47:31;12.60;99.90
40255;DHT22;25973;52.368;4.940;2023-03-31T13:55:42;12.80;99.90
40255;DHT22;25973;52.368;4.940;2023-03-31T13:58:13;12.90;99.90
40255;DHT22;25973;52.368;4.940;2023-03-31T14:05:41;13.20;99.90
40255;DHT22;25973;52.368;4.940;2023-03-31T14:08:11;13.20;99.90
40255;DHT22;25973;52.368;4.940;2023-03-31T14:10:39;13.20;99.90
40255;DHT22;25973;52.368;4.940;2023-03-31T14:13:08;13.20;99.90
40255;DHT22;25973;52.368;4.940;2023-03-31T14:15:34;13.20;99.90
40255;DHT22;25973;52.368;4.940;2023-03-31T14:18:01;13.10;99.90
40255;DHT22;25973;52.368;4.940;2023-03-31T14:20:48;13.20;99.90
40255;DHT22;25973;52.368;4.940;2023-03-31T14:23:22;13.20;99.90
40255;DHT22;25973;52.368;4.940;2023-03-31T14:25:52;13.30;99.90
40255;DHT22;25973;52.368;4.940;2023-03-31T14:28:24;13.40;99.90
40255;DHT22;25973;52.368;4.940;2023-03-31T14:38:18;13.50;99.90
40255;DHT22;25973;52.368;4.940;2023-03-31T14:40:52;13.50;99.90
40255;DHT22;25973;52.368;4.940;2023-03-31T14:43:26;13.50;99.90
40255;DHT22;25973;52.368;4.940;2023-03-31T14:45:59;13.30;99.90
40255;DHT22;25973;52.368;4.940;2023-03-31T14:48:26;13.20;99.90
40255;DHT22;25973;52.368;4.940;2023-03-31T14:50:55;13.10;99.90
40255;DHT22;25973;52.368;4.940;2023-03-31T14:53:24;13.10;99.90
40255;DHT22;25973;52.368;4.940;2023-03-31T14:55:51;13.10;99.90
40255;DHT22;25973;52.368;4.940;2023-03-31T14:58:26;13.10;99.90
40255;DHT22;25973;52.368;4.940;2023-03-31T15:00:53;13.10;99.90
40255;DHT22;25973;52.368;4.940;2023-03-31T15:03:18;13.10;99.90
40255;DHT22;25973;52.368;4.940;2023-03-31T15:05:44;13.10;99.90
40255;DHT22;25973;52.368;4.940;2023-03-31T15:08:11;13.10;99.90
40255;DHT22;25973;52.368;4.940;2023-03-31T15:10:39;13.00;99.90
40255;DHT22;25973;52.368;4.940;2023-03-31T15:13:08;13.00;99.90
40255;DHT22;25973;52.368;4.940;2023-03-31T15:15:34;13.00;99.90
40255;DHT22;25973;52.368;4.940;2023-03-31T15:18:00;12.90;99.90
40255;DHT22;25973;52.368;4.940;2023-03-31T15:22:55;12.70;99.90
40255;DHT22;25973;52.368;4.940;2023-03-31T15:25:21;12.80;99.90
40255;DHT22;25973;52.368;4.940;2023-03-31T15:30:47;12.70;99.90
40255;DHT22;25973;52.368;4.940;2023-03-31T15:33:27;12.60;99.90
40255;DHT22;25973;52.368;4.940;2023-03-31T15:35:55;12.50;99.90
40255;DHT22;25973;52.368;4.940;2023-03-31T15:38:21;12.50;99.90
40255;DHT22;25973;52.368;4.940;2023-03-31T15:40:49;12.50;99.90
40255;DHT22;25973;52.368;4.940;2023-03-31T15:43:17;12.40;99.90
40255;DHT22;25973;52.368;4.940;2023-03-31T15:45:47;12.40;99.90
40255;DHT22;25973;52.368;4.940;2023-03-31T15:48:21;12.40;99.90
40255;DHT22;25973;52.368;4.940;2023-03-31T15:50:47;12.40;99.90
40255;DHT22;25973;52.368;4.940;2023-03-31T15:53:47;12.40;99.90
40255;DHT22;25973;52.368;4.940;2023-03-31T15:56:04;12.30;99.90
40255;DHT22;25973;52.368;4.940;2023-03-31T15:58:44;12.20;99.90
40255;DHT22;25973;52.368;4.940;2023-03-31T16:01:10;12.20;99.90
40255;DHT22;25973;52.368;4.940;2023-03-31T16:03:39;12.20;99.90
40255;DHT22;25973;52.368;4.940;2023-03-31T16:08:58;12.10;99.90
40255;DHT22;25973;52.368;4.940;2023-03-31T16:11:59;12.10;99.90
40255;DHT22;25973;52.368;4.940;2023-03-31T16:16:47;12.10;99.90
40255;DHT22;25973;52.368;4.940;2023-03-31T16:19:13;12.10;99.90
40255;DHT22;25973;52.368;4.940;2023-03-31T16:21:41;12.10;99.90
40255;DHT22;25973;52.368;4.940;2023-03-31T16:24:11;12.00;99.90
40255;DHT22;25973;52.368;4.940;2023-03-31T16:26:37;12.00;99.90
40255;DHT22;25973;52.368;4.940;2023-03-31T16:29:03;12.00;99.90
40255;DHT22;25973;52.368;4.940;2023-03-31T16:31:38;11.90;99.90
40255;DHT22;25973;52.368;4.940;2023-03-31T16:34:05;11.90;99.90
40255;DHT22;25973;52.368;4.940;2023-03-31T16:36:31;12.00;99.90
40255;DHT22;25973;52.368;4.940;2023-03-31T16:38:56;11.90;99.90
40255;DHT22;25973;52.368;4.940;2023-03-31T16:41:24;11.90;99.90
40255;DHT22;25973;52.368;4.940;2023-03-31T16:43:51;11.80;99.90
40255;DHT22;25973;52.368;4.940;2023-03-31T16:46:18;11.80;99.90
40255;DHT22;25973;52.368;4.940;2023-03-31T16:48:43;11.80;99.90
40255;DHT22;25973;52.368;4.940;2023-03-31T16:51:09;11.80;99.90
40255;DHT22;25973;52.368;4.940;2023-03-31T16:53:35;11.70;99.90
40255;DHT22;25973;52.368;4.940;2023-03-31T16:56:04;11.60;99.90
40255;DHT22;25973;52.368;4.940;2023-03-31T16:58:33;11.50;99.90
40255;DHT22;25973;52.368;4.940;2023-03-31T17:00:59;11.50;99.90
40255;DHT22;25973;52.368;4.940;2023-03-31T17:03:24;11.40;99.90
40255;DHT22;25973;52.368;4.940;2023-03-31T17:05:50;11.40;99.90
40255;DHT22;25973;52.368;4.940;2023-03-31T17:08:17;11.40;99.90
40255;DHT22;25973;52.368;4.940;2023-03-31T17:10:49;11.40;99.90
40255;DHT22;25973;52.368;4.940;2023-03-31T17:13:15;11.40;99.90
40255;DHT22;25973;52.368;4.940;2023-03-31T17:15:40;11.50;99.90
40255;DHT22;25973;52.368;4.940;2023-03-31T17:18:06;11.50;99.90
40255;DHT22;25973;52.368;4.940;2023-03-31T17:20:31;11.60;99.90
40255;DHT22;25973;52.368;4.940;2023-03-31T17:22:58;11.60;99.90
40255;DHT22;25973;52.368;4.940;2023-03-31T17:25:23;11.60;99.90
40255;DHT22;25973;52.368;4.940;2023-03-31T17:27:49;11.70;99.90
40255;DHT22;25973;52.368;4.940;2023-03-31T17:30:15;11.70;99.90
40255;DHT22;25973;52.368;4.940;2023-03-31T17:32:40;11.70;99.90
40255;DHT22;25973;52.368;4.940;2023-03-31T17:35:06;11.70;99.90
40255;DHT22;25973;52.368;4.940;2023-03-31T17:37:32;11.60;99.90
40255;DHT22;25973;52.368;4.940;2023-03-31T17:39:58;11.60;99.90
40255;DHT22;25973;52.368;4.940;2023-03-31T17:42:23;11.50;99.90
40255;DHT22;25973;52.368;4.940;2023-03-31T17:44:49;11.50;99.90
40255;DHT22;25973;52.368;4.940;2023-03-31T17:47:16;11.50;99.90
40255;DHT22;25973;52.368;4.940;2023-03-31T17:49:42;11.50;99.90
40255;DHT22;25973;52.368;4.940;2023-03-31T17:52:08;11.40;99.90
40255;DHT22;25973;52.368;4.940;2023-03-31T17:54:33;11.40;99.90
40255;DHT22;25973;52.368;4.940;2023-03-31T17:56:59;11.40;99.90
40255;DHT22;25973;52.368;4.940;2023-03-31T17:59:24;11.40;99.90
40255;DHT22;25973;52.368;4.940;2023-03-31T18:01:49;11.40;99.90
40255;DHT22;25973;52.368;4.940;2023-03-31T18:04:15;11.40;99.90
40255;DHT22;25973;52.368;4.940;2023-03-31T18:06:41;11.40;99.90
40255;DHT22;25973;52.368;4.940;2023-03-31T18:09:09;11.40;99.90
40255;DHT22;25973;52.368;4.940;2023-03-31T18:11:35;11.40;99.90